sensor_id;sensor_type;location;lat;lon;timestamp;P1;durP1;ratioP1;P2;durP2;ratioP2
80776;SDS011;70169;51.262;6.336;2024-01-15T00:00:50;30.67;;;13.07;;
80776;SDS011;70169;51.262;6.336;2024-01-15T00:03:05;33.90;;;13.47;;
80776;SDS011;70169;51.262;6.336;2024-01-15T00:05:20;29.37;;;13.13;;
80776;SDS011;70169;51.262;6.336;2024-01-15T00:07:35;35.33;;;15.67;;
80776;SDS011;70169;51.262;6.336;2024-01-15T00:09:50;28.77;;;12.83;;
80776;SDS011;70169;51.262;6.336;2024-01-15T00:12:06;33.33;;;14.57;;
80776;SDS011;70169;51.262;6.336;2024-01-15T00:14:21;31.02;;;13.95;;
80776;SDS011;70169;51.262;6.336;2024-01-15T00:16:36;28.27;;;12.65;;
80776;SDS011;70169;51.262;6.336;2024-01-15T00:18:51;32.20;;;14.67;;
80776;SDS011;70169;51.262;6.336;2024-01-15T00:21:07;32.07;;;14.10;;
80776;SDS011;70169;51.262;6.336;2024-01-15T00:23:22;35.83;;;14.87;;
80776;SDS011;70169;51.262;6.336;2024-01-15T00:25:37;31.20;;;14.80;;
80776;SDS011;70169;51.262;6.336;2024-01-15T00:27:52;31.83;;;15.37;;
80776;SDS011;70169;51.262;6.336;2024-01-15T00:30:08;28.27;;;12.83;;
80776;SDS011;70169;51.262;6.336;2024-01-15T00:32:23;29.43;;;12.20;;
80776;SDS011;70169;51.262;6.336;2024-01-15T00:34:38;32.23;;;14.87;;
80776;SDS011;70169;51.262;6.336;2024-01-15T00:36:53;30.70;;;13.47;;
80776;SDS011;70169;51.262;6.336;2024-01-15T00:39:09;30.67;;;13.63;;
80776;SDS011;70169;51.262;6.336;2024-01-15T00:41:25;34.45;;;17.02;;
80776;SDS011;70169;51.262;6.336;2024-01-15T00:43:42;36.08;;;15.90;;
80776;SDS011;70169;51.262;6.336;2024-01-15T00:45:57;30.17;;;14.13;;
80776;SDS011;70169;51.262;6.336;2024-01-15T00:48:13;31.87;;;15.47;;
80776;SDS011;70169;51.262;6.336;2024-01-15T00:50:28;34.17;;;14.90;;
80776;SDS011;70169;51.262;6.336;2024-01-15T00:52:43;31.02;;;13.68;;
80776;SDS011;70169;51.262;6.336;2024-01-15T00:54:59;30.47;;;13.43;;
80776;SDS011;70169;51.262;6.336;2024-01-15T00:57:14;30.63;;;14.97;;
80776;SDS011;70169;51.262;6.336;2024-01-15T00:59:29;29.37;;;13.23;;
80776;SDS011;70169;51.262;6.336;2024-01-15T01:01:44;33.20;;;12.77;;
80776;SDS011;70169;51.262;6.336;2024-01-15T01:04:00;30.05;;;13.35;;
80776;SDS011;70169;51.262;6.336;2024-01-15T01:06:16;28.53;;;14.20;;
80776;SDS011;70169;51.262;6.336;2024-01-15T01:08:31;32.57;;;14.23;;
80776;SDS011;70169;51.262;6.336;2024-01-15T01:10:46;30.50;;;12.87;;
80776;SDS011;70169;51.262;6.336;2024-01-15T01:13:01;27.47;;;13.73;;
80776;SDS011;70169;51.262;6.336;2024-01-15T01:15:16;31.37;;;13.37;;
80776;SDS011;70169;51.262;6.336;2024-01-15T01:17:32;28.23;;;14.73;;
80776;SDS011;70169;51.262;6.336;2024-01-15T01:19:47;29.25;;;14.82;;
80776;SDS011;70169;51.262;6.336;2024-01-15T01:22:03;27.30;;;12.77;;
80776;SDS011;70169;51.262;6.336;2024-01-15T01:24:18;32.20;;;14.50;;
80776;SDS011;70169;51.262;6.336;2024-01-15T01:26:33;33.23;;;14.80;;
80776;SDS011;70169;51.262;6.336;2024-01-15T01:28:48;29.63;;;13.77;;
80776;SDS011;70169;51.262;6.336;2024-01-15T01:31:03;24.47;;;12.70;;
80776;SDS011;70169;51.262;6.336;2024-01-15T01:33:18;24.83;;;12.33;;
80776;SDS011;70169;51.262;6.336;2024-01-15T01:35:34;22.67;;;11.83;;
80776;SDS011;70169;51.262;6.336;2024-01-15T01:37:49;26.70;;;12.17;;
80776;SDS011;70169;51.262;6.336;2024-01-15T01:40:04;27.90;;;12.27;;
80776;SDS011;70169;51.262;6.336;2024-01-15T01:42:20;24.55;;;13.07;;
80776;SDS011;70169;51.262;6.336;2024-01-15T01:44:35;25.07;;;11.97;;
80776;SDS011;70169;51.262;6.336;2024-01-15T01:46:50;22.27;;;11.23;;
80776;SDS011;70169;51.262;6.336;2024-01-15T01:49:06;25.97;;;11.27;;
80776;SDS011;70169;51.262;6.336;2024-01-15T01:51:22;26.05;;;12.07;;
80776;SDS011;70169;51.262;6.336;2024-01-15T01:53:38;27.15;;;12.13;;
80776;SDS011;70169;51.262;6.336;2024-01-15T01:55:53;21.53;;;11.20;;
80776;SDS011;70169;51.262;6.336;2024-01-15T01:58:09;20.98;;;10.52;;
80776;SDS011;70169;51.262;6.336;2024-01-15T02:00:24;27.93;;;11.70;;
80776;SDS011;70169;51.262;6.336;2024-01-15T02:02:39;22.43;;;11.57;;
80776;SDS011;70169;51.262;6.336;2024-01-15T02:04:54;21.00;;;10.37;;
80776;SDS011;70169;51.262;6.336;2024-01-15T02:07:10;23.33;;;12.40;;
80776;SDS011;70169;51.262;6.336;2024-01-15T02:09:25;21.30;;;10.18;;
80776;SDS011;70169;51.262;6.336;2024-01-15T02:11:41;21.60;;;12.37;;
80776;SDS011;70169;51.262;6.336;2024-01-15T02:13:57;21.20;;;9.93;;
80776;SDS011;70169;51.262;6.336;2024-01-15T02:16:12;23.13;;;11.87;;
80776;SDS011;70169;51.262;6.336;2024-01-15T02:18:27;22.83;;;12.00;;
80776;SDS011;70169;51.262;6.336;2024-01-15T02:20:42;20.50;;;10.73;;
80776;SDS011;70169;51.262;6.336;2024-01-15T02:23:11;20.45;;;10.55;;
80776;SDS011;70169;51.262;6.336;2024-01-15T02:25:27;26.48;;;12.90;;
80776;SDS011;70169;51.262;6.336;2024-01-15T02:27:42;19.83;;;11.53;;
80776;SDS011;70169;51.262;6.336;2024-01-15T02:29:58;23.63;;;10.73;;
80776;SDS011;70169;51.262;6.336;2024-01-15T02:32:13;26.90;;;11.73;;
80776;SDS011;70169;51.262;6.336;2024-01-15T02:34:31;22.00;;;11.00;;
80776;SDS011;70169;51.262;6.336;2024-01-15T02:36:46;19.67;;;11.27;;
80776;SDS011;70169;51.262;6.336;2024-01-15T02:39:01;23.60;;;12.20;;
80776;SDS011;70169;51.262;6.336;2024-01-15T02:41:16;21.63;;;11.43;;
80776;SDS011;70169;51.262;6.336;2024-01-15T02:43:32;20.73;;;11.23;;
80776;SDS011;70169;51.262;6.336;2024-01-15T02:45:47;17.80;;;9.80;;
80776;SDS011;70169;51.262;6.336;2024-01-15T02:48:02;21.77;;;10.27;;
80776;SDS011;70169;51.262;6.336;2024-01-15T02:50:17;18.73;;;10.23;;
80776;SDS011;70169;51.262;6.336;2024-01-15T02:52:32;22.37;;;10.43;;
80776;SDS011;70169;51.262;6.336;2024-01-15T02:54:48;20.87;;;10.53;;
80776;SDS011;70169;51.262;6.336;2024-01-15T02:57:03;21.23;;;11.00;;
80776;SDS011;70169;51.262;6.336;2024-01-15T02:59:18;17.67;;;9.70;;
80776;SDS011;70169;51.262;6.336;2024-01-15T03:01:33;20.00;;;11.33;;
80776;SDS011;70169;51.262;6.336;2024-01-15T03:03:48;19.13;;;10.90;;
80776;SDS011;70169;51.262;6.336;2024-01-15T03:06:04;19.77;;;10.20;;
80776;SDS011;70169;51.262;6.336;2024-01-15T03:08:19;21.85;;;11.68;;
80776;SDS011;70169;51.262;6.336;2024-01-15T03:10:34;18.97;;;10.97;;
80776;SDS011;70169;51.262;6.336;2024-01-15T03:12:49;18.50;;;10.13;;
80776;SDS011;70169;51.262;6.336;2024-01-15T03:15:05;20.67;;;10.03;;
80776;SDS011;70169;51.262;6.336;2024-01-15T03:17:20;17.63;;;10.55;;
80776;SDS011;70169;51.262;6.336;2024-01-15T03:19:35;19.10;;;10.73;;
80776;SDS011;70169;51.262;6.336;2024-01-15T03:21:50;17.93;;;9.60;;
80776;SDS011;70169;51.262;6.336;2024-01-15T03:24:05;19.80;;;8.93;;
80776;SDS011;70169;51.262;6.336;2024-01-15T03:26:21;17.57;;;9.33;;
80776;SDS011;70169;51.262;6.336;2024-01-15T03:28:36;18.20;;;9.90;;
80776;SDS011;70169;51.262;6.336;2024-01-15T03:30:51;16.23;;;8.73;;
80776;SDS011;70169;51.262;6.336;2024-01-15T03:33:07;16.37;;;10.23;;
80776;SDS011;70169;51.262;6.336;2024-01-15T03:35:22;20.80;;;10.40;;
80776;SDS011;70169;51.262;6.336;2024-01-15T03:37:37;19.00;;;8.97;;
80776;SDS011;70169;51.262;6.336;2024-01-15T03:39:52;15.73;;;9.33;;
80776;SDS011;70169;51.262;6.336;2024-01-15T03:42:07;18.43;;;9.07;;
80776;SDS011;70169;51.262;6.336;2024-01-15T03:44:23;18.00;;;8.70;;
80776;SDS011;70169;51.262;6.336;2024-01-15T03:46:38;17.10;;;9.77;;
80776;SDS011;70169;51.262;6.336;2024-01-15T03:48:53;19.90;;;9.97;;
80776;SDS011;70169;51.262;6.336;2024-01-15T03:51:08;15.77;;;7.77;;
80776;SDS011;70169;51.262;6.336;2024-01-15T03:53:23;15.23;;;8.43;;
80776;SDS011;70169;51.262;6.336;2024-01-15T03:55:39;17.70;;;7.63;;
80776;SDS011;70169;51.262;6.336;2024-01-15T03:57:54;17.67;;;8.17;;
80776;SDS011;70169;51.262;6.336;2024-01-15T04:00:09;20.13;;;8.40;;
80776;SDS011;70169;51.262;6.336;2024-01-15T04:02:24;17.90;;;9.82;;
80776;SDS011;70169;51.262;6.336;2024-01-15T04:04:43;14.50;;;8.77;;
80776;SDS011;70169;51.262;6.336;2024-01-15T04:06:58;14.43;;;8.00;;
80776;SDS011;70169;51.262;6.336;2024-01-15T04:09:13;18.73;;;9.53;;
80776;SDS011;70169;51.262;6.336;2024-01-15T04:11:29;16.77;;;9.23;;
80776;SDS011;70169;51.262;6.336;2024-01-15T04:13:44;17.77;;;8.93;;
80776;SDS011;70169;51.262;6.336;2024-01-15T04:15:59;16.40;;;9.10;;
80776;SDS011;70169;51.262;6.336;2024-01-15T04:18:15;16.42;;;9.27;;
80776;SDS011;70169;51.262;6.336;2024-01-15T04:20:30;18.90;;;8.90;;
80776;SDS011;70169;51.262;6.336;2024-01-15T04:22:46;17.33;;;7.80;;
80776;SDS011;70169;51.262;6.336;2024-01-15T04:25:01;17.20;;;8.97;;
80776;SDS011;70169;51.262;6.336;2024-01-15T04:27:16;14.05;;;7.82;;
80776;SDS011;70169;51.262;6.336;2024-01-15T04:29:32;14.20;;;8.13;;
80776;SDS011;70169;51.262;6.336;2024-01-15T04:31:47;15.43;;;8.17;;
80776;SDS011;70169;51.262;6.336;2024-01-15T04:34:02;17.07;;;7.47;;
80776;SDS011;70169;51.262;6.336;2024-01-15T04:36:17;13.23;;;7.47;;
80776;SDS011;70169;51.262;6.336;2024-01-15T04:38:32;16.23;;;8.57;;
80776;SDS011;70169;51.262;6.336;2024-01-15T04:40:48;19.60;;;7.40;;
80776;SDS011;70169;51.262;6.336;2024-01-15T04:43:03;15.47;;;7.23;;
80776;SDS011;70169;51.262;6.336;2024-01-15T04:45:18;17.50;;;8.07;;
80776;SDS011;70169;51.262;6.336;2024-01-15T04:47:34;15.30;;;7.28;;
80776;SDS011;70169;51.262;6.336;2024-01-15T04:49:51;14.80;;;7.78;;
80776;SDS011;70169;51.262;6.336;2024-01-15T04:52:06;15.67;;;9.07;;
80776;SDS011;70169;51.262;6.336;2024-01-15T04:54:25;14.73;;;8.00;;
80776;SDS011;70169;51.262;6.336;2024-01-15T04:56:40;14.23;;;7.37;;
80776;SDS011;70169;51.262;6.336;2024-01-15T04:58:55;15.07;;;6.83;;
80776;SDS011;70169;51.262;6.336;2024-01-15T05:01:10;14.77;;;7.03;;
80776;SDS011;70169;51.262;6.336;2024-01-15T05:03:26;11.68;;;7.00;;
80776;SDS011;70169;51.262;6.336;2024-01-15T05:05:41;15.63;;;7.37;;
80776;SDS011;70169;51.262;6.336;2024-01-15T05:07:56;11.23;;;5.83;;
80776;SDS011;70169;51.262;6.336;2024-01-15T05:10:11;12.30;;;6.57;;
80776;SDS011;70169;51.262;6.336;2024-01-15T05:12:26;11.17;;;6.70;;
80776;SDS011;70169;51.262;6.336;2024-01-15T05:14:42;11.63;;;5.97;;
80776;SDS011;70169;51.262;6.336;2024-01-15T05:16:57;13.20;;;6.53;;
80776;SDS011;70169;51.262;6.336;2024-01-15T05:19:12;11.63;;;6.10;;
80776;SDS011;70169;51.262;6.336;2024-01-15T05:21:27;11.73;;;6.70;;
80776;SDS011;70169;51.262;6.336;2024-01-15T05:23:43;13.90;;;6.87;;
80776;SDS011;70169;51.262;6.336;2024-01-15T05:25:58;12.27;;;6.93;;
80776;SDS011;70169;51.262;6.336;2024-01-15T05:28:13;10.20;;;6.47;;
80776;SDS011;70169;51.262;6.336;2024-01-15T05:30:29;10.70;;;6.30;;
80776;SDS011;70169;51.262;6.336;2024-01-15T05:32:44;14.23;;;6.93;;
80776;SDS011;70169;51.262;6.336;2024-01-15T05:34:59;11.20;;;5.93;;
80776;SDS011;70169;51.262;6.336;2024-01-15T05:37:14;11.97;;;6.37;;
80776;SDS011;70169;51.262;6.336;2024-01-15T05:39:29;14.10;;;6.90;;
80776;SDS011;70169;51.262;6.336;2024-01-15T05:41:44;10.00;;;5.83;;
80776;SDS011;70169;51.262;6.336;2024-01-15T05:44:00;9.73;;;6.83;;
80776;SDS011;70169;51.262;6.336;2024-01-15T05:46:15;9.93;;;5.97;;
80776;SDS011;70169;51.262;6.336;2024-01-15T05:48:30;10.35;;;7.05;;
80776;SDS011;70169;51.262;6.336;2024-01-15T05:50:46;10.03;;;6.03;;
80776;SDS011;70169;51.262;6.336;2024-01-15T05:53:01;9.27;;;5.83;;
80776;SDS011;70169;51.262;6.336;2024-01-15T05:55:17;10.18;;;6.10;;
80776;SDS011;70169;51.262;6.336;2024-01-15T05:57:33;9.73;;;5.78;;
80776;SDS011;70169;51.262;6.336;2024-01-15T05:59:49;10.27;;;4.83;;
80776;SDS011;70169;51.262;6.336;2024-01-15T06:02:04;12.60;;;5.30;;
80776;SDS011;70169;51.262;6.336;2024-01-15T06:04:19;8.03;;;4.40;;
80776;SDS011;70169;51.262;6.336;2024-01-15T06:06:34;10.27;;;3.90;;
80776;SDS011;70169;51.262;6.336;2024-01-15T06:08:49;11.13;;;5.10;;
80776;SDS011;70169;51.262;6.336;2024-01-15T06:11:05;7.97;;;4.73;;
80776;SDS011;70169;51.262;6.336;2024-01-15T06:13:21;8.70;;;4.15;;
80776;SDS011;70169;51.262;6.336;2024-01-15T06:15:36;10.83;;;5.23;;
80776;SDS011;70169;51.262;6.336;2024-01-15T06:17:51;8.47;;;5.47;;
80776;SDS011;70169;51.262;6.336;2024-01-15T06:20:07;10.93;;;5.60;;
80776;SDS011;70169;51.262;6.336;2024-01-15T06:22:22;11.73;;;5.97;;
80776;SDS011;70169;51.262;6.336;2024-01-15T06:24:37;12.33;;;6.70;;
80776;SDS011;70169;51.262;6.336;2024-01-15T06:26:52;11.83;;;7.37;;
80776;SDS011;70169;51.262;6.336;2024-01-15T06:29:07;11.90;;;6.67;;
80776;SDS011;70169;51.262;6.336;2024-01-15T06:31:23;12.40;;;7.60;;
80776;SDS011;70169;51.262;6.336;2024-01-15T06:33:38;46.47;;;27.53;;
80776;SDS011;70169;51.262;6.336;2024-01-15T06:35:53;27.63;;;14.87;;
80776;SDS011;70169;51.262;6.336;2024-01-15T06:38:08;16.50;;;9.20;;
80776;SDS011;70169;51.262;6.336;2024-01-15T06:40:24;14.87;;;8.70;;
80776;SDS011;70169;51.262;6.336;2024-01-15T06:42:39;20.63;;;12.77;;
80776;SDS011;70169;51.262;6.336;2024-01-15T06:44:54;18.17;;;9.90;;
80776;SDS011;70169;51.262;6.336;2024-01-15T06:47:09;19.10;;;8.77;;
80776;SDS011;70169;51.262;6.336;2024-01-15T06:49:24;16.90;;;9.63;;
80776;SDS011;70169;51.262;6.336;2024-01-15T06:51:39;16.90;;;9.43;;
80776;SDS011;70169;51.262;6.336;2024-01-15T06:53:55;16.77;;;9.80;;
80776;SDS011;70169;51.262;6.336;2024-01-15T06:56:10;16.93;;;10.47;;
80776;SDS011;70169;51.262;6.336;2024-01-15T06:58:25;20.73;;;11.87;;
80776;SDS011;70169;51.262;6.336;2024-01-15T07:00:40;31.20;;;17.73;;
80776;SDS011;70169;51.262;6.336;2024-01-15T07:02:55;35.60;;;19.67;;
80776;SDS011;70169;51.262;6.336;2024-01-15T07:05:11;25.37;;;15.47;;
80776;SDS011;70169;51.262;6.336;2024-01-15T07:07:26;24.10;;;12.27;;
80776;SDS011;70169;51.262;6.336;2024-01-15T07:09:44;20.05;;;11.50;;
80776;SDS011;70169;51.262;6.336;2024-01-15T07:11:59;16.90;;;10.53;;
80776;SDS011;70169;51.262;6.336;2024-01-15T07:14:14;30.77;;;16.10;;
80776;SDS011;70169;51.262;6.336;2024-01-15T07:16:29;23.27;;;13.97;;
80776;SDS011;70169;51.262;6.336;2024-01-15T07:18:45;18.93;;;10.23;;
80776;SDS011;70169;51.262;6.336;2024-01-15T07:21:00;27.87;;;17.30;;
80776;SDS011;70169;51.262;6.336;2024-01-15T07:23:16;24.30;;;15.70;;
80776;SDS011;70169;51.262;6.336;2024-01-15T07:25:32;12.02;;;8.65;;
80776;SDS011;70169;51.262;6.336;2024-01-15T07:27:47;19.13;;;12.48;;
80776;SDS011;70169;51.262;6.336;2024-01-15T07:30:03;17.43;;;10.60;;
80776;SDS011;70169;51.262;6.336;2024-01-15T07:32:20;22.83;;;17.58;;
80776;SDS011;70169;51.262;6.336;2024-01-15T07:34:35;18.43;;;13.73;;
80776;SDS011;70169;51.262;6.336;2024-01-15T07:36:51;17.15;;;10.43;;
80776;SDS011;70169;51.262;6.336;2024-01-15T07:39:06;18.05;;;10.60;;
80776;SDS011;70169;51.262;6.336;2024-01-15T07:41:21;14.30;;;8.02;;
80776;SDS011;70169;51.262;6.336;2024-01-15T07:43:37;16.50;;;11.20;;
80776;SDS011;70169;51.262;6.336;2024-01-15T07:45:52;13.63;;;8.85;;
80776;SDS011;70169;51.262;6.336;2024-01-15T07:48:08;15.57;;;9.70;;
80776;SDS011;70169;51.262;6.336;2024-01-15T07:50:24;18.70;;;11.30;;
80776;SDS011;70169;51.262;6.336;2024-01-15T07:52:40;16.03;;;9.00;;
80776;SDS011;70169;51.262;6.336;2024-01-15T07:54:56;13.57;;;8.00;;
80776;SDS011;70169;51.262;6.336;2024-01-15T07:57:14;10.15;;;8.13;;
80776;SDS011;70169;51.262;6.336;2024-01-15T07:59:29;11.20;;;7.90;;
80776;SDS011;70169;51.262;6.336;2024-01-15T08:01:44;12.03;;;6.87;;
80776;SDS011;70169;51.262;6.336;2024-01-15T08:04:00;14.87;;;10.33;;
80776;SDS011;70169;51.262;6.336;2024-01-15T08:06:15;14.73;;;9.57;;
80776;SDS011;70169;51.262;6.336;2024-01-15T08:08:30;14.75;;;9.50;;
80776;SDS011;70169;51.262;6.336;2024-01-15T08:10:45;12.10;;;8.87;;
80776;SDS011;70169;51.262;6.336;2024-01-15T08:13:00;17.90;;;10.53;;
80776;SDS011;70169;51.262;6.336;2024-01-15T08:15:16;16.37;;;11.70;;
80776;SDS011;70169;51.262;6.336;2024-01-15T08:17:32;13.90;;;9.38;;
80776;SDS011;70169;51.262;6.336;2024-01-15T08:19:47;14.40;;;9.40;;
80776;SDS011;70169;51.262;6.336;2024-01-15T08:22:02;18.93;;;10.47;;
80776;SDS011;70169;51.262;6.336;2024-01-15T08:24:18;15.27;;;10.33;;
80776;SDS011;70169;51.262;6.336;2024-01-15T08:26:33;12.83;;;9.47;;
80776;SDS011;70169;51.262;6.336;2024-01-15T08:28:48;17.27;;;9.63;;
80776;SDS011;70169;51.262;6.336;2024-01-15T08:31:03;12.73;;;9.10;;
80776;SDS011;70169;51.262;6.336;2024-01-15T08:33:19;10.90;;;7.47;;
80776;SDS011;70169;51.262;6.336;2024-01-15T08:35:34;12.33;;;7.83;;
80776;SDS011;70169;51.262;6.336;2024-01-15T08:37:50;12.15;;;8.57;;
80776;SDS011;70169;51.262;6.336;2024-01-15T08:40:05;13.10;;;8.33;;
80776;SDS011;70169;51.262;6.336;2024-01-15T08:42:20;15.23;;;10.57;;
80776;SDS011;70169;51.262;6.336;2024-01-15T08:44:35;14.40;;;10.33;;
80776;SDS011;70169;51.262;6.336;2024-01-15T08:46:51;14.00;;;9.63;;
80776;SDS011;70169;51.262;6.336;2024-01-15T08:49:06;43.63;;;28.13;;
80776;SDS011;70169;51.262;6.336;2024-01-15T08:51:21;15.23;;;9.47;;
80776;SDS011;70169;51.262;6.336;2024-01-15T08:53:36;12.60;;;7.47;;
80776;SDS011;70169;51.262;6.336;2024-01-15T08:55:51;11.47;;;7.27;;
80776;SDS011;70169;51.262;6.336;2024-01-15T08:58:07;10.63;;;6.60;;
80776;SDS011;70169;51.262;6.336;2024-01-15T09:00:22;11.17;;;7.03;;
80776;SDS011;70169;51.262;6.336;2024-01-15T09:02:37;11.03;;;7.10;;
80776;SDS011;70169;51.262;6.336;2024-01-15T09:04:52;10.13;;;6.93;;
80776;SDS011;70169;51.262;6.336;2024-01-15T09:07:08;9.80;;;6.03;;
80776;SDS011;70169;51.262;6.336;2024-01-15T09:09:23;10.60;;;7.40;;
80776;SDS011;70169;51.262;6.336;2024-01-15T09:11:38;9.67;;;6.27;;
80776;SDS011;70169;51.262;6.336;2024-01-15T09:13:53;11.40;;;6.80;;
80776;SDS011;70169;51.262;6.336;2024-01-15T09:16:09;11.27;;;6.60;;
80776;SDS011;70169;51.262;6.336;2024-01-15T09:18:24;9.67;;;6.67;;
80776;SDS011;70169;51.262;6.336;2024-01-15T09:20:39;9.07;;;5.63;;
80776;SDS011;70169;51.262;6.336;2024-01-15T09:22:54;9.63;;;5.80;;
80776;SDS011;70169;51.262;6.336;2024-01-15T09:25:10;8.50;;;5.30;;
80776;SDS011;70169;51.262;6.336;2024-01-15T09:27:25;7.10;;;4.53;;
80776;SDS011;70169;51.262;6.336;2024-01-15T09:29:43;8.45;;;5.25;;
80776;SDS011;70169;51.262;6.336;2024-01-15T09:32:00;10.32;;;5.13;;
80776;SDS011;70169;51.262;6.336;2024-01-15T09:36:37;6.22;;;4.22;;
80776;SDS011;70169;51.262;6.336;2024-01-15T09:38:53;7.57;;;3.85;;
80776;SDS011;70169;51.262;6.336;2024-01-15T09:41:08;7.47;;;4.43;;
80776;SDS011;70169;51.262;6.336;2024-01-15T09:43:24;6.70;;;5.03;;
80776;SDS011;70169;51.262;6.336;2024-01-15T09:45:39;6.30;;;3.80;;
80776;SDS011;70169;51.262;6.336;2024-01-15T09:47:54;10.40;;;5.27;;
80776;SDS011;70169;51.262;6.336;2024-01-15T09:50:10;7.57;;;5.33;;
80776;SDS011;70169;51.262;6.336;2024-01-15T09:52:25;7.90;;;4.60;;
80776;SDS011;70169;51.262;6.336;2024-01-15T09:54:42;7.80;;;6.20;;
80776;SDS011;70169;51.262;6.336;2024-01-15T09:56:58;5.75;;;2.97;;
80776;SDS011;70169;51.262;6.336;2024-01-15T09:59:14;5.55;;;4.28;;
80776;SDS011;70169;51.262;6.336;2024-01-15T10:01:31;5.60;;;3.15;;
80776;SDS011;70169;51.262;6.336;2024-01-15T10:03:46;5.20;;;3.38;;
80776;SDS011;70169;51.262;6.336;2024-01-15T10:06:01;4.27;;;2.63;;
80776;SDS011;70169;51.262;6.336;2024-01-15T10:08:17;4.18;;;3.38;;
80776;SDS011;70169;51.262;6.336;2024-01-15T10:10:33;4.57;;;3.20;;
80776;SDS011;70169;51.262;6.336;2024-01-15T10:12:49;4.57;;;3.08;;
80776;SDS011;70169;51.262;6.336;2024-01-15T10:15:05;4.55;;;2.50;;
80776;SDS011;70169;51.262;6.336;2024-01-15T10:17:20;3.85;;;2.58;;
80776;SDS011;70169;51.262;6.336;2024-01-15T10:19:36;7.53;;;2.60;;
80776;SDS011;70169;51.262;6.336;2024-01-15T10:21:51;7.27;;;2.70;;
80776;SDS011;70169;51.262;6.336;2024-01-15T10:24:06;4.07;;;2.30;;
80776;SDS011;70169;51.262;6.336;2024-01-15T10:26:24;3.70;;;1.83;;
80776;SDS011;70169;51.262;6.336;2024-01-15T10:28:40;7.50;;;2.72;;
80776;SDS011;70169;51.262;6.336;2024-01-15T10:30:56;4.50;;;2.00;;
80776;SDS011;70169;51.262;6.336;2024-01-15T10:33:12;5.25;;;2.30;;
80776;SDS011;70169;51.262;6.336;2024-01-15T10:35:30;4.23;;;2.23;;
80776;SDS011;70169;51.262;6.336;2024-01-15T10:37:47;6.72;;;3.55;;
80776;SDS011;70169;51.262;6.336;2024-01-15T10:40:02;4.53;;;3.60;;
80776;SDS011;70169;51.262;6.336;2024-01-15T10:42:20;3.58;;;2.03;;
80776;SDS011;70169;51.262;6.336;2024-01-15T10:44:35;5.95;;;3.03;;
80776;SDS011;70169;51.262;6.336;2024-01-15T10:46:50;2.37;;;1.57;;
80776;SDS011;70169;51.262;6.336;2024-01-15T10:49:06;4.25;;;1.48;;
80776;SDS011;70169;51.262;6.336;2024-01-15T10:51:22;3.55;;;1.60;;
80776;SDS011;70169;51.262;6.336;2024-01-15T10:53:38;4.47;;;1.27;;
80776;SDS011;70169;51.262;6.336;2024-01-15T10:55:54;2.55;;;1.40;;
80776;SDS011;70169;51.262;6.336;2024-01-15T10:58:09;2.97;;;1.60;;
80776;SDS011;70169;51.262;6.336;2024-01-15T11:00:25;3.42;;;2.17;;
80776;SDS011;70169;51.262;6.336;2024-01-15T11:02:40;4.43;;;2.42;;
80776;SDS011;70169;51.262;6.336;2024-01-15T11:04:55;3.40;;;2.70;;
80776;SDS011;70169;51.262;6.336;2024-01-15T11:07:11;3.60;;;2.17;;
80776;SDS011;70169;51.262;6.336;2024-01-15T11:09:26;4.07;;;1.70;;
80776;SDS011;70169;51.262;6.336;2024-01-15T11:11:43;6.33;;;2.57;;
80776;SDS011;70169;51.262;6.336;2024-01-15T11:13:59;5.85;;;4.47;;
80776;SDS011;70169;51.262;6.336;2024-01-15T11:16:15;5.25;;;4.35;;
80776;SDS011;70169;51.262;6.336;2024-01-15T11:18:31;7.63;;;5.75;;
80776;SDS011;70169;51.262;6.336;2024-01-15T11:25:54;5.65;;;3.78;;
80776;SDS011;70169;51.262;6.336;2024-01-15T11:28:09;7.57;;;5.77;;
80776;SDS011;70169;51.262;6.336;2024-01-15T11:30:25;6.17;;;3.33;;
80776;SDS011;70169;51.262;6.336;2024-01-15T11:32:40;4.70;;;2.70;;
80776;SDS011;70169;51.262;6.336;2024-01-15T11:34:57;5.20;;;2.78;;
80776;SDS011;70169;51.262;6.336;2024-01-15T11:37:19;7.63;;;3.63;;
80776;SDS011;70169;51.262;6.336;2024-01-15T11:39:43;6.72;;;3.50;;
80776;SDS011;70169;51.262;6.336;2024-01-15T11:41:59;8.50;;;4.25;;
80776;SDS011;70169;51.262;6.336;2024-01-15T11:44:15;11.20;;;6.85;;
80776;SDS011;70169;51.262;6.336;2024-01-15T11:46:30;10.17;;;4.23;;
80776;SDS011;70169;51.262;6.336;2024-01-15T11:48:51;10.13;;;4.72;;
80776;SDS011;70169;51.262;6.336;2024-01-15T11:51:12;6.45;;;5.03;;
80776;SDS011;70169;51.262;6.336;2024-01-15T11:53:40;9.68;;;7.47;;
80776;SDS011;70169;51.262;6.336;2024-01-15T11:55:58;15.38;;;6.93;;
80776;SDS011;70169;51.262;6.336;2024-01-15T11:58:15;9.63;;;6.93;;
80776;SDS011;70169;51.262;6.336;2024-01-15T12:00:31;8.80;;;4.57;;
80776;SDS011;70169;51.262;6.336;2024-01-15T12:02:46;9.27;;;7.23;;
80776;SDS011;70169;51.262;6.336;2024-01-15T12:05:02;10.48;;;7.55;;
80776;SDS011;70169;51.262;6.336;2024-01-15T12:07:18;9.85;;;7.47;;
80776;SDS011;70169;51.262;6.336;2024-01-15T12:09:33;11.82;;;7.40;;
80776;SDS011;70169;51.262;6.336;2024-01-15T12:11:51;9.77;;;7.13;;
80776;SDS011;70169;51.262;6.336;2024-01-15T12:14:08;13.68;;;6.63;;
80776;SDS011;70169;51.262;6.336;2024-01-15T12:16:23;10.23;;;5.60;;
80776;SDS011;70169;51.262;6.336;2024-01-15T12:18:38;11.70;;;7.13;;
80776;SDS011;70169;51.262;6.336;2024-01-15T12:20:54;12.73;;;7.80;;
80776;SDS011;70169;51.262;6.336;2024-01-15T12:23:09;9.67;;;5.30;;
80776;SDS011;70169;51.262;6.336;2024-01-15T12:25:25;10.23;;;5.78;;
80776;SDS011;70169;51.262;6.336;2024-01-15T12:27:42;8.80;;;4.97;;
80776;SDS011;70169;51.262;6.336;2024-01-15T12:30:00;8.27;;;5.03;;
80776;SDS011;70169;51.262;6.336;2024-01-15T12:32:15;9.18;;;6.38;;
80776;SDS011;70169;51.262;6.336;2024-01-15T12:34:31;10.20;;;4.93;;
80776;SDS011;70169;51.262;6.336;2024-01-15T12:36:47;6.15;;;4.25;;
80776;SDS011;70169;51.262;6.336;2024-01-15T12:39:02;19.57;;;14.20;;
80776;SDS011;70169;51.262;6.336;2024-01-15T12:41:18;7.18;;;5.15;;
80776;SDS011;70169;51.262;6.336;2024-01-15T12:43:33;8.50;;;5.30;;
80776;SDS011;70169;51.262;6.336;2024-01-15T12:45:48;5.83;;;3.50;;
80776;SDS011;70169;51.262;6.336;2024-01-15T12:48:04;9.77;;;4.23;;
80776;SDS011;70169;51.262;6.336;2024-01-15T12:50:19;4.35;;;3.35;;
80776;SDS011;70169;51.262;6.336;2024-01-15T12:52:34;4.67;;;3.33;;
80776;SDS011;70169;51.262;6.336;2024-01-15T12:54:51;9.30;;;3.97;;
80776;SDS011;70169;51.262;6.336;2024-01-15T12:57:06;5.72;;;3.92;;
80776;SDS011;70169;51.262;6.336;2024-01-15T12:59:21;4.07;;;2.50;;
80776;SDS011;70169;51.262;6.336;2024-01-15T13:01:37;4.67;;;2.30;;
80776;SDS011;70169;51.262;6.336;2024-01-15T13:03:52;2.70;;;1.70;;
80776;SDS011;70169;51.262;6.336;2024-01-15T13:06:07;3.17;;;1.70;;
80776;SDS011;70169;51.262;6.336;2024-01-15T13:08:22;3.27;;;1.40;;
80776;SDS011;70169;51.262;6.336;2024-01-15T13:10:40;3.15;;;1.75;;
80776;SDS011;70169;51.262;6.336;2024-01-15T13:12:57;3.22;;;2.22;;
80776;SDS011;70169;51.262;6.336;2024-01-15T13:15:12;3.00;;;1.83;;
80776;SDS011;70169;51.262;6.336;2024-01-15T13:17:27;5.27;;;1.80;;
80776;SDS011;70169;51.262;6.336;2024-01-15T13:19:43;2.78;;;1.60;;
80776;SDS011;70169;51.262;6.336;2024-01-15T13:21:59;3.10;;;1.33;;
80776;SDS011;70169;51.262;6.336;2024-01-15T13:24:15;2.70;;;1.85;;
80776;SDS011;70169;51.262;6.336;2024-01-15T13:26:30;2.90;;;1.57;;
80776;SDS011;70169;51.262;6.336;2024-01-15T13:28:45;3.30;;;2.00;;
80776;SDS011;70169;51.262;6.336;2024-01-15T13:31:01;2.80;;;1.60;;